Weather History for KARW - May, 2013

Change the Weather History Date:

Friday, May 3, 2013

  Actual Average (KNBC) Record (KNBC)
Temperature  
Mean Temperature 66 °F -  
Max Temperature 71 °F 79 °F 96 °F (1959)
Min Temperature 60 °F 60 °F 37 °F (1939)
Growing Degree Days 16 (Base 50)    
Moisture  
Dew Point 61 °F    
Average Humidity 86    
Maximum Humidity 94    
Minimum Humidity 73    
Precipitation  
Precipitation 0.00 in - - ()
Sea Level Pressure  
Sea Level Pressure 30.02 in    
Wind  
Wind Speed 19 mph (NE)    
Max Wind Speed 25 mph    
Max Gust Speed 36 mph    
Visibility 8 miles    
Events      
Averages and records for this station are not official NWS values.
T = Trace of Precipitation, MM = Missing Value Source: NWS Daily Summary

Daily Weather History Graph

Daily Weather History Graph

Search for Another Location

Airport or City:

Trip Planner

Search our weather history database for the weather conditions in past years. The results will help you decide how hot, cold, wet, or windy it might be!

Date:

Astronomy

May. 03, 2013 Rise Set
Actual Time 6:33 AM EDT 8:05 PM EDT
Civil Twilight 6:07 AM EDT 8:31 PM EDT
Nautical Twilight 5:36 AM EDT 9:03 PM EDT
Astronomical Twilight 5:03 AM EDT 9:36 PM EDT
Moon 2:35 AM EDT (5/3) 2:18 PM EDT (5/3)
Length of Visible Light 14h 24m
Length of Day
13h 31m
Last Quarter, 37% of the Moon is Illuminated
May 3
Last Quarter
May 9
New
May 18
First Quarter
May 25
Full
May 31
Last Quarter

Hourly Weather History & Observations

Time (EDT) Temp. Dew Point Humidity Pressure Visibility Wind Dir Wind Speed Gust Speed Precip Events Conditions
12:15 AM 64.4 °F 60.8 °F 88% 30.09 in 10.0 mi NE 16.1 mph 24.2 mph N/A   Scattered Clouds
12:35 AM 64.4 °F 60.8 °F 88% 30.08 in 7.0 mi NE 18.4 mph 25.3 mph N/A   Scattered Clouds
12:55 AM 64.4 °F 60.8 °F 88% 30.08 in 10.0 mi NE 16.1 mph - N/A   Clear
1:15 AM 64.4 °F 60.8 °F 88% 30.07 in 7.0 mi NE 15.0 mph 24.2 mph N/A   Clear
1:35 AM 64.4 °F 60.8 °F 88% 30.06 in 10.0 mi NE 16.1 mph 23.0 mph N/A   Clear
1:55 AM 64.4 °F 60.8 °F 88% 30.06 in 10.0 mi NE 16.1 mph 19.6 mph N/A   Clear
2:15 AM 64.4 °F 60.8 °F 88% 30.05 in 10.0 mi NE 17.3 mph 20.7 mph N/A   Clear
2:35 AM 64.4 °F 60.8 °F 88% 30.04 in 7.0 mi NE 20.7 mph - N/A   Clear
2:55 AM 64.4 °F 60.8 °F 88% 30.03 in 10.0 mi NE 23.0 mph 31.1 mph N/A   Scattered Clouds
3:15 AM 64.4 °F 60.8 °F 88% 30.02 in 7.0 mi NE 23.0 mph 27.6 mph N/A   Mostly Cloudy
3:35 AM 62.6 °F 60.8 °F 94% 30.02 in 10.0 mi NE 23.0 mph 28.8 mph N/A   Overcast
4:15 AM 62.6 °F 60.8 °F 94% 30.01 in 10.0 mi NE 25.3 mph 29.9 mph N/A   Overcast
4:35 AM 62.6 °F 60.8 °F 94% 30.01 in 10.0 mi NE 23.0 mph 28.8 mph N/A   Overcast
4:55 AM 62.6 °F 60.8 °F 94% 30.01 in 10.0 mi NE 23.0 mph 27.6 mph N/A   Overcast
5:15 AM 62.6 °F 60.8 °F 94% 30.02 in 5.0 mi NE 21.9 mph 26.5 mph N/A   Overcast
5:35 AM 62.6 °F 60.8 °F 94% 30.02 in 10.0 mi NE 20.7 mph - N/A   Overcast
5:55 AM 62.6 °F 60.8 °F 94% 30.02 in 10.0 mi NE 23.0 mph 27.6 mph N/A   Overcast
6:15 AM 62.6 °F 60.8 °F 94% 30.03 in 10.0 mi NE 20.7 mph 26.5 mph N/A   Overcast
6:35 AM 62.6 °F 60.8 °F 94% 30.03 in 10.0 mi NE 19.6 mph 26.5 mph N/A   Overcast
6:55 AM 62.6 °F 60.8 °F 94% 30.04 in 10.0 mi NE 19.6 mph 25.3 mph N/A   Overcast
7:15 AM 62.6 °F 60.8 °F 94% 30.04 in 10.0 mi NE 18.4 mph 25.3 mph N/A   Overcast
7:35 AM 62.6 °F 60.8 °F 94% 30.04 in 10.0 mi NE 20.7 mph - N/A   Overcast
7:55 AM 62.6 °F 60.8 °F 94% 30.04 in 7.0 mi NE 17.3 mph - N/A   Overcast
8:15 AM 62.6 °F 60.8 °F 94% 30.04 in 10.0 mi NE 18.4 mph 24.2 mph N/A   Overcast
8:35 AM 62.6 °F 60.8 °F 94% 30.04 in 10.0 mi NE 18.4 mph 25.3 mph N/A   Overcast
8:55 AM 62.6 °F 60.8 °F 94% 30.04 in 10.0 mi NE 18.4 mph 23.0 mph N/A   Overcast
9:15 AM 62.6 °F 60.8 °F 94% 30.04 in 7.0 mi NE 17.3 mph 21.9 mph N/A   Overcast
9:35 AM 64.4 °F 60.8 °F 88% 30.04 in 7.0 mi NE 18.4 mph - N/A   Overcast
9:55 AM 64.4 °F 60.8 °F 88% 30.04 in 7.0 mi NE 18.4 mph 25.3 mph N/A   Overcast
10:15 AM 64.4 °F 62.6 °F 94% 30.04 in 10.0 mi NE 18.4 mph 25.3 mph N/A   Overcast
10:35 AM 64.4 °F 62.6 °F 94% 30.04 in 7.0 mi NE 19.6 mph 26.5 mph N/A   Overcast
10:55 AM 68.0 °F 62.6 °F 83% 30.04 in 7.0 mi NE 20.7 mph 25.3 mph N/A   Overcast
11:15 AM 68.0 °F 62.6 °F 83% 30.04 in 7.0 mi NE 20.7 mph 24.2 mph N/A   Overcast
11:35 AM 68.0 °F 62.6 °F 83% 30.05 in 7.0 mi NE 17.3 mph 21.9 mph N/A   Overcast
11:55 AM 68.0 °F 62.6 °F 83% 30.05 in 7.0 mi ENE 20.7 mph 28.8 mph N/A   Overcast
12:15 PM 69.8 °F 62.6 °F 78% 30.04 in 7.0 mi ENE 19.6 mph 25.3 mph N/A   Overcast
12:35 PM 69.8 °F 62.6 °F 78% 30.04 in 7.0 mi ENE 21.9 mph 27.6 mph N/A   Mostly Cloudy
12:55 PM 69.8 °F 62.6 °F 78% 30.04 in 5.0 mi ENE 15.0 mph 28.8 mph N/A   Haze
1:15 PM 71.6 °F 62.6 °F 73% 30.03 in 5.0 mi ENE 17.3 mph 23.0 mph N/A   Haze
1:35 PM 69.8 °F 62.6 °F 78% 30.03 in 7.0 mi ENE 21.9 mph 27.6 mph N/A   Scattered Clouds
1:55 PM 69.8 °F 62.6 °F 78% 30.03 in 7.0 mi ENE 18.4 mph 24.2 mph N/A   Scattered Clouds
2:15 PM 69.8 °F 62.6 °F 78% 30.02 in 7.0 mi ENE 19.6 mph 26.5 mph N/A   Scattered Clouds
2:35 PM 69.8 °F 60.8 °F 73% 30.02 in 7.0 mi ENE 19.6 mph 29.9 mph N/A   Scattered Clouds
2:55 PM 68.0 °F 62.6 °F 83% 30.02 in 7.0 mi ENE 19.6 mph 32.2 mph N/A   Scattered Clouds
3:15 PM 68.0 °F 62.6 °F 83% 30.01 in 7.0 mi ENE 19.6 mph 27.6 mph N/A   Scattered Clouds
3:35 PM 68.0 °F 62.6 °F 83% 30.01 in 7.0 mi NE 19.6 mph 26.5 mph N/A   Mostly Cloudy
3:55 PM 68.0 °F 62.6 °F 83% 30.01 in 7.0 mi ENE 17.3 mph 26.5 mph N/A   Overcast
4:15 PM 68.0 °F 62.6 °F 83% 30.00 in 7.0 mi ENE 16.1 mph 29.9 mph N/A   Overcast
4:35 PM 68.0 °F 62.6 °F 83% 30.00 in 5.0 mi NE 17.3 mph 21.9 mph N/A   Haze
4:55 PM 68.0 °F 62.6 °F 83% 29.99 in 7.0 mi ENE 15.0 mph 23.0 mph N/A   Overcast
5:15 PM 68.0 °F 62.6 °F 83% 29.99 in 5.0 mi ENE 18.4 mph 21.9 mph N/A   Haze
5:35 PM 68.0 °F 60.8 °F 78% 29.99 in 7.0 mi ENE 16.1 mph 28.8 mph N/A   Scattered Clouds
5:55 PM 68.0 °F 60.8 °F 78% 29.98 in 7.0 mi ENE 19.6 mph 25.3 mph N/A   Clear
6:15 PM 68.0 °F 60.8 °F 78% 29.99 in 7.0 mi ENE 19.6 mph 27.6 mph N/A   Clear
6:35 PM 66.2 °F 60.8 °F 83% 30.00 in 5.0 mi ENE 18.4 mph 29.9 mph N/A   Haze
6:55 PM 66.2 °F 60.8 °F 83% 30.00 in 5.0 mi NE 21.9 mph 28.8 mph N/A   Haze
7:15 PM 66.2 °F 60.8 °F 83% 29.99 in 7.0 mi ENE 19.6 mph 29.9 mph N/A   Overcast
7:35 PM 64.4 °F 60.8 °F 88% 30.00 in 7.0 mi ENE 20.7 mph 26.5 mph N/A   Overcast
7:55 PM 64.4 °F 59.0 °F 83% 30.00 in 7.0 mi ENE 24.2 mph 32.2 mph N/A   Overcast
8:15 PM 64.4 °F 59.0 °F 83% 30.01 in 7.0 mi ENE 19.6 mph 31.1 mph N/A   Overcast
8:35 PM 64.4 °F 57.2 °F 77% 30.00 in 10.0 mi NE 20.7 mph 28.8 mph N/A   Overcast
8:55 PM 64.4 °F 59.0 °F 83% 30.01 in 7.0 mi ENE 21.9 mph 35.7 mph N/A   Overcast
9:15 PM 62.6 °F 59.0 °F 88% 30.01 in 7.0 mi ENE 16.1 mph 28.8 mph N/A   Mostly Cloudy
9:35 PM 62.6 °F 59.0 °F 88% 30.01 in 7.0 mi ENE 20.7 mph 34.5 mph N/A   Mostly Cloudy
9:55 PM 60.8 °F 57.2 °F 88% 30.01 in 7.0 mi NE 21.9 mph 31.1 mph N/A   Scattered Clouds
10:15 PM 60.8 °F 57.2 °F 88% 30.01 in 5.0 mi ENE 18.4 mph 27.6 mph N/A   Mostly Cloudy
10:35 PM 60.8 °F 57.2 °F 88% 30.01 in 7.0 mi NE 15.0 mph 24.2 mph N/A   Overcast
10:55 PM 60.8 °F 55.4 °F 82% 30.00 in 7.0 mi ENE 19.6 mph 25.3 mph N/A   Overcast
11:15 PM 60.8 °F 55.4 °F 82% 29.99 in 10.0 mi NE 20.7 mph 29.9 mph N/A   Light Drizzle
11:35 PM 60.8 °F 55.4 °F 82% 29.98 in 10.0 mi ENE 17.3 mph 27.6 mph N/A   Light Drizzle
11:55 PM 60.8 °F 55.4 °F 82% 29.98 in 10.0 mi ENE 18.4 mph 28.8 mph N/A   Overcast